Latest Weather Observations for Orange Airport

IDN60801

Issued at 2:52 pm EST Monday 23 September 2019 (issued every 10 minutes, with the page automatically refreshed every 10 minutes)

About weather observations | Map of weather stations | Latest weather observations for NSW | Other Formats
Station Details ID: 063303 Name: ORANGE AIRPORT AWS Lat: -33.38 Lon: 149.13 Height: 944.65 m
Data from the previous 72 hours. | See also: Recent months at Orange Airport
Date/Time
EST
Temp
°C
App
Temp
°C
Dew
Point
°C
Rel
Hum
%
Delta-T
°C
Wind Press
QNH
hPa
Press
MSL
hPa
Rain since
9am
mm
Dir  Spd
km/h
Gust
km/h
Spd
kts
Gust
kts
23/02:30pm 10.4 1.3 -0.7 46 4.7 W 37 50 20 27 1023.6 1023.3 0.0
23/02:00pm 11.9 3.0 0.7 46 4.9 WSW 37 54 20 29 1023.5 1023.1 0.0
23/01:54pm 11.6 2.9 -0.5 43 5.2 WSW 35 54 19 29 1023.5 1023.1 0.0
23/01:30pm 11.7 3.3 1.6 50 4.5 WSW 35 50 19 27 1024.0 1023.6 0.0
23/01:12pm 11.5 2.6 0.6 47 4.8 W 37 56 20 30 1023.9 1023.5 0.0
23/01:00pm 10.5 1.9 0.0 48 4.5 WSW 35 52 19 28 1024.1 1023.7 0.0
23/12:30pm 11.5 3.4 1.2 49 4.6 W 33 48 18 26 1024.2 1023.8 0.0
23/12:00pm 12.0 3.6 1.3 48 4.8 W 35 50 19 27 1024.1 1023.7 0.0
23/11:48am 11.8 4.4 2.0 51 4.4 W 30 50 16 27 1024.3 1023.9 0.0
23/11:30am 10.3 2.7 0.3 50 4.3 W 30 39 16 21 1024.4 1024.0 0.0
23/11:00am 9.3 2.0 -0.3 51 4.0 WSW 28 35 15 19 1024.7 1024.4 0.0
23/10:30am 10.1 2.1 0.2 50 4.2 W 32 44 17 24 1024.8 1024.5 0.0
23/10:15am 10.6 3.4 0.6 50 4.3 W 28 46 15 25 1024.8 1024.5 0.0
23/10:00am 10.1 2.5 0.4 51 4.2 W 30 43 16 23 1024.8 1024.5 0.0
23/09:30am 9.7 2.3 -0.5 49 4.3 WSW 28 39 15 21 1025.1 1024.7 0.0
23/09:00am 9.8 2.1 -0.1 50 4.2 W 30 43 16 23 1025.1 1024.7 0.0
23/08:30am 9.6 2.8 1.0 55 3.7 W 26 41 14 22 1025.0 1024.6 0.0
23/08:00am 9.1 2.6 0.6 55 3.6 W 24 39 13 21 1024.8 1024.5 0.0
23/07:30am 8.2 4.8 2.0 65 2.7 WNW 9 22 5 12 1024.5 1024.1 0.0
23/07:00am 5.2 2.2 1.7 78 1.5 NW 7 9 4 5 1024.4 1024.0 0.0
23/06:30am 3.0 -0.5 -1.4 73 1.7 NW 7 7 4 4 1024.3 1023.9 0.0
23/06:00am 1.8 -1.5 -1.6 78 1.3 NW 6 7 3 4 1024.1 1023.7 0.0
23/05:30am 2.6 -0.9 -1.6 74 1.6 NW 7 7 4 4 1024.0 1023.6 0.0
23/05:00am 2.7 -0.8 -1.6 73 1.6 WNW 7 7 4 4 1023.8 1023.4 0.0
23/04:30am 2.7 -0.6 -1.3 75 1.5 W 6 7 3 4 1023.5 1023.1 0.0
23/04:00am 3.3 0.0 -1.4 71 1.8 W 6 7 3 4 1023.4 1023.0 0.0
23/03:30am 3.0 -0.9 -1.2 74 1.6 WSW 9 11 5 6 1023.5 1023.1 0.0
23/03:00am 3.5 -0.7 -1.1 72 1.8 WSW 11 11 6 6 1023.5 1023.1 0.0
23/02:30am 4.1 -0.1 -0.9 70 2.0 WSW 11 13 6 7 1023.8 1023.4 0.0
23/02:00am 4.6 -0.3 -0.4 70 2.0 SW 15 17 8 9 1024.0 1023.6 0.0
23/01:30am 4.7 -0.2 -0.3 70 2.0 WSW 15 17 8 9 1024.4 1024.0 0.0
23/01:00am 5.6 0.3 -0.4 65 2.4 SW 17 20 9 11 1024.2 1023.8 0.0
23/12:30am 5.0 0.2 0.0 70 2.0 SW 15 17 8 9 1024.3 1023.9 0.0
23/12:00am 5.4 0.6 0.0 68 2.2 SW 15 17 8 9 1024.4 1024.0 0.0
 
Date/Time
EST
Temp
°C
App
Temp
°C
Dew
Point
°C
Rel
Hum
%
Delta-T
°C
Wind Press
QNH
hPa
Press
MSL
hPa
Rain since
9am
mm
Dir  Spd
km/h
Gust
km/h
Spd
kts
Gust
kts
22/11:30pm 6.2 1.8 0.3 66 2.4 SW 13 17 7 9 1024.5 1024.1 0.0
22/11:00pm 6.0 1.6 0.1 66 2.4 SW 13 15 7 8 1024.5 1024.1 0.0
22/10:30pm 6.4 2.0 0.5 66 2.5 SW 13 17 7 9 1024.7 1024.4 0.0
22/10:00pm 7.0 2.3 0.7 64 2.6 SW 15 17 8 9 1024.8 1024.5 0.0
22/09:30pm 7.8 2.4 1.0 62 2.9 SW 19 24 10 13 1025.0 1024.6 0.0
22/09:00pm 7.4 3.5 1.3 65 2.6 SSW 11 15 6 8 1024.8 1024.5 0.0
22/08:30pm 6.9 3.4 1.2 67 2.4 S 9 11 5 6 1024.7 1024.4 0.0
22/08:00pm 8.2 3.9 1.1 61 3.0 SW 13 19 7 10 1024.6 1024.3 0.0
22/07:30pm 8.3 5.1 0.8 59 3.2 WSW 7 9 4 5 1024.3 1023.9 0.0
22/07:00pm 8.7 5.1 0.7 57 3.4 SW 9 13 5 7 1024.1 1023.7 0.0
22/06:30pm 9.5 5.2 0.9 55 3.7 SW 13 17 7 9 1024.0 1023.6 0.0
22/06:00pm 10.4 6.2 1.5 54 3.9 SW 13 19 7 10 1023.6 1023.3 0.0
22/05:30pm 12.1 7.2 2.3 51 4.5 WSW 17 20 9 11 1023.4 1023.0 0.0
22/05:00pm 13.1 7.8 1.8 46 5.1 WSW 19 24 10 13 1023.3 1022.9 0.0
22/04:30pm 13.8 8.6 3.3 49 5.0 SW 20 26 11 14 1023.1 1022.7 0.0
22/04:00pm 14.4 9.8 3.8 49 5.1 WSW 17 24 9 13 1023.0 1022.6 0.0
22/03:30pm 14.8 10.6 3.6 47 5.4 W 15 24 8 13 1023.0 1022.6 0.0
22/03:00pm 14.5 10.3 3.6 48 5.2 WSW 15 22 8 12 1022.8 1022.4 0.0
22/02:30pm 14.5 9.5 4.5 51 4.9 SW 20 28 11 15 1023.0 1022.6 0.0
22/02:00pm 14.8 9.9 5.3 53 4.7 SW 20 30 11 16 1022.9 1022.5 0.0
22/01:30pm 14.5 10.1 4.5 51 4.9 SW 17 24 9 13 1023.2 1022.8 0.0
22/01:00pm 13.9 9.3 3.7 50 4.9 SW 17 24 9 13 1023.4 1023.0 0.0
22/12:30pm 14.0 10.4 6.6 61 3.8 SSW 15 20 8 11 1023.6 1023.3 0.0
22/12:00pm 13.2 8.9 5.4 59 3.8 SW 17 20 9 11 1024.1 1023.7 0.0
22/11:30am 12.5 9.6 4.7 59 3.8 SSW 9 20 5 11 1024.2 1023.8 0.0
22/11:00am 12.3 8.7 4.8 60 3.6 SSW 13 20 7 11 1024.3 1023.9 0.0
22/10:30am 11.6 7.7 3.6 58 3.8 S 13 22 7 12 1024.4 1024.0 0.0
22/10:00am 11.1 6.9 3.9 61 3.4 SSW 15 22 8 12 1024.5 1024.1 0.0
22/09:30am 11.1 6.4 5.0 66 2.9 SSW 19 24 10 13 1024.5 1024.1 0.0
22/09:00am 10.0 5.1 4.2 67 2.7 SSW 19 26 10 14 1024.5 1024.1 12.0
22/08:30am 9.6 4.8 4.8 72 2.3 SSW 19 26 10 14 1024.1 1023.7 12.0
22/08:00am 8.6 4.1 6.1 84 1.2 SSW 19 22 10 12 1024.0 1023.6 12.0
22/07:30am 8.0 4.4 6.9 93 0.5 SSW 15 20 8 11 1023.6 1023.3 12.0
22/07:00am 7.6 3.9 6.5 93 0.5 SSW 15 19 8 10 1023.3 1022.9 12.0
22/06:30am 7.5 4.3 6.8 95 0.3 SSW 13 19 7 10 1023.0 1022.6 12.0
22/06:00am 7.4 4.9 6.5 94 0.4 SW 9 15 5 8 1022.8 1022.4 12.0
22/05:33am 7.6 3.7 6.9 95 0.3 SSW 17 20 9 11 1022.2 1021.8 12.0
22/05:30am 7.8 4.3 7.4 97 0.2 SSW 15 20 8 11 1022.2 1021.8 12.0
22/05:22am 7.9 4.5 7.5 97 0.2 SSW 15 20 8 11 1022.1 1021.7 12.0
22/05:17am 8.0 3.8 7.6 97 0.2 SW 19 24 10 13 1022.2 1021.8 11.8
22/05:03am 8.0 3.8 7.6 97 0.2 SW 19 28 10 15 1022.0 1021.6 11.4
22/05:00am 8.1 4.3 7.7 97 0.2 SW 17 24 9 13 1021.9 1021.5 11.4
22/04:59am 8.1 4.3 7.7 97 0.2 SW 17 22 9 12 1021.8 1021.3 11.4
22/04:57am 8.1 4.3 7.7 97 0.2 SW 17 24 9 13 1021.7 1021.2 11.4
22/04:41am 8.2 4.4 7.6 96 0.3 SW 17 26 9 14 1021.4 1021.0 11.2
22/04:30am 8.3 4.2 7.7 96 0.3 SW 19 26 10 14 1021.2 1020.8 10.6
22/04:27am 8.4 4.3 8.0 97 0.2 SW 19 22 10 12 1021.2 1020.8 10.4
22/04:26am 8.4 4.3 8.0 97 0.2 SW 19 22 10 12 1021.2 1020.8 10.4
22/04:07am 8.6 4.6 8.3 98 0.2 SW 19 22 10 12 1021.1 1020.7 10.0
22/04:00am 8.6 5.0 8.3 98 0.2 SW 17 22 9 12 1020.9 1020.5 10.0
22/03:53am 8.6 5.0 8.3 98 0.2 SW 17 20 9 11 1020.8 1020.3 10.0
22/03:30am 8.5 4.8 7.9 96 0.3 SW 17 24 9 13 1020.4 1019.9 10.0
22/03:24am 8.6 5.3 8.0 96 0.3 SW 15 19 8 10 1020.2 1019.8 10.0
22/03:02am 8.9 4.9 8.1 95 0.4 SW 19 26 10 14 1020.6 1020.1 9.4
22/03:00am 9.0 4.8 8.2 95 0.4 SW 20 26 11 14 1020.7 1020.2 9.4
22/02:41am 9.3 5.7 8.5 95 0.4 SW 17 20 9 11 1020.6 1020.1 8.8
22/02:30am 9.3 6.1 8.4 94 0.5 SW 15 19 8 10 1020.6 1020.1 8.8
22/02:00am 10.0 8.2 9.4 96 0.3 SW 9 11 5 6 1021.1 1020.7 8.6
22/01:54am 10.0 8.6 9.4 96 0.3 SW 7 9 4 5 1021.0 1020.6 8.6
22/01:30am 10.1 8.6 9.3 95 0.4 WSW 7 11 4 6 1020.8 1020.3 8.6
22/01:00am 10.8 9.8 10.2 96 0.3 SSW 6 7 3 4 1020.9 1020.5 8.6
22/12:30am 11.2 10.9 10.1 93 0.6 NNW 2 9 1 5 1021.0 1020.6 8.6
22/12:00am 11.3 9.4 10.4 94 0.5 NNW 11 17 6 9 1021.7 1021.2 8.6
 
Date/Time
EST
Temp
°C
App
Temp
°C
Dew
Point
°C
Rel
Hum
%
Delta-T
°C
Wind Press
QNH
hPa
Press
MSL
hPa
Rain since
9am
mm
Dir  Spd
km/h
Gust
km/h
Spd
kts
Gust
kts
21/11:30pm 11.6 8.1 10.2 91 0.8 NW 19 26 10 14 1021.6 1021.1 8.6
21/11:20pm 12.2 9.2 10.6 90 0.9 NNW 17 24 9 13 1021.0 1020.6 8.4
21/11:00pm 11.2 10.0 10.4 95 0.4 WNW 7 13 4 7 1021.2 1020.8 8.0
21/10:57pm 11.2 10.6 10.3 94 0.5 NW 4 13 2 7 1021.4 1021.0 7.8
21/10:30pm 11.3 9.6 9.9 91 0.7 N 9 11 5 6 1021.0 1020.6 7.0
21/10:09pm 12.2 9.4 10.1 87 1.1 NNW 15 20 8 11 1021.2 1020.8 7.0
21/10:00pm 12.4 8.7 10.3 87 1.1 NNW 20 28 11 15 1021.1 1020.7 7.0
21/09:30pm 12.5 9.8 10.2 86 1.2 NNW 15 20 8 11 1021.1 1020.7 4.6
21/09:23pm 12.5 10.1 10.0 85 1.3 NNW 13 17 7 9 1021.4 1021.0 4.2
21/09:00pm 12.2 10.7 9.2 82 1.6 NNW 7 9 4 5 1021.0 1020.6 3.0
21/08:30pm 12.6 10.0 9.4 81 1.7 N 13 17 7 9 1021.1 1020.7 3.0
21/08:00pm 13.2 10.6 9.3 77 2.1 NNW 13 15 7 8 1021.6 1021.1 3.0
21/07:30pm 13.4 10.1 9.5 77 2.1 N 17 22 9 12 1021.2 1020.8 3.0
21/07:00pm 14.1 9.0 9.1 72 2.7 NNW 26 33 14 18 1020.9 1020.5 3.0
21/06:30pm 14.7 10.1 9.7 72 2.7 N 24 37 13 20 1020.5 1020.0 3.0
21/06:00pm 13.6 10.0 10.6 82 1.6 NNE 20 26 11 14 1020.4 1019.9 3.0
21/05:30pm 13.8 10.2 10.4 80 1.9 N 20 26 11 14 1020.0 1019.6 3.0
21/05:00pm 13.8 9.2 11.0 83 1.5 N 26 33 14 18 1020.1 1019.7 3.0
21/04:30pm 13.6 9.2 11.7 88 1.1 NNE 26 35 14 19 1019.7 1019.2 3.0
21/04:17pm 13.1 10.0 11.7 91 0.8 NNE 19 24 10 13 1019.9 1019.4 3.0
21/04:00pm 13.0 9.8 11.4 90 0.9 N 19 24 10 13 1020.4 1019.9 3.0
21/03:30pm 13.2 9.9 10.9 86 1.3 NNW 19 26 10 14 1020.9 1020.5 2.4
21/03:00pm 13.6 10.2 11.1 85 1.4 NNW 20 37 11 20 1021.0 1020.6 1.6
21/02:30pm 13.6 9.3 10.6 82 1.6 NNW 24 35 13 19 1020.9 1020.5 1.0
21/02:06pm 15.4 11.3 10.0 70 3.0 NNW 22 37 12 20 1021.0 1020.6 0.6
21/02:00pm 15.7 12.1 10.0 69 3.1 NNW 19 32 10 17 1021.0 1020.6 0.4
21/01:30pm 14.8 11.1 10.2 74 2.5 NNW 20 28 11 15 1021.1 1020.7 0.4
21/01:00pm 15.6 9.7 10.6 72 2.8 NNW 32 41 17 22 1021.1 1020.7 0.2
21/12:30pm 16.3 9.3 9.9 66 3.5 NNW 37 52 20 28 1021.4 1021.0 0.0
21/12:00pm 19.3 12.1 10.6 57 4.9 NNW 39 57 21 31 1021.6 1021.1 0.0
21/11:57am 18.3 11.1 9.1 55 5.0 NNW 37 57 20 31 1021.6 1021.1 0.0
21/11:30am 18.0 10.9 9.6 58 4.6 N 37 48 20 26 1021.8 1021.3 0.0
21/11:09am 17.9 11.2 9.5 58 4.6 N 35 54 19 29 1022.1 1021.7 0.0
21/11:00am 17.3 10.6 9.5 60 4.3 N 35 46 19 25 1022.2 1021.8 0.0
21/10:30am 17.6 11.5 9.8 60 4.3 N 32 46 17 25 1022.2 1021.8 0.0
21/10:16am 16.7 9.8 8.7 59 4.3 N 35 56 19 30 1022.2 1021.8 0.0
21/10:00am 16.9 10.5 9.3 61 4.1 N 33 46 18 25 1022.5 1022.1 0.0
21/09:30am 15.8 9.1 9.5 66 3.4 N 35 46 19 25 1022.7 1022.2 0.0
21/09:00am 14.9 8.7 9.5 70 2.9 N 32 44 17 24 1022.7 1022.2 0.0
21/08:30am 14.3 8.5 9.3 72 2.7 N 30 37 16 20 1022.9 1022.5 0.0
21/08:00am 13.7 8.3 9.4 75 2.3 N 28 35 15 19 1022.7 1022.2 0.0
21/07:30am 13.4 7.2 9.3 76 2.2 N 32 41 17 22 1022.7 1022.2 0.0
21/07:00am 12.9 7.4 9.2 78 2.0 N 28 37 15 20 1022.3 1021.9 0.0
21/06:30am 12.2 7.9 9.2 82 1.6 N 22 28 12 15 1022.2 1021.8 0.0
21/06:00am 12.3 8.4 9.5 83 1.5 NNE 20 28 11 15 1021.8 1021.3 0.0
21/05:30am 11.8 8.5 9.4 85 1.3 N 17 22 9 12 1021.7 1021.2 0.0
21/05:00am 12.1 9.2 9.5 84 1.4 NNE 15 20 8 11 1021.3 1020.9 0.0
21/04:30am 12.1 8.8 9.7 85 1.3 NNE 17 20 9 11 1021.1 1020.7 0.0
21/04:00am 11.7 10.0 9.9 89 1.0 NNE 9 15 5 8 1021.0 1020.6 0.0
21/03:30am 11.5 9.8 9.8 89 0.9 NNE 9 13 5 7 1021.1 1020.7 0.0
21/03:00am 11.6 9.5 9.9 89 0.9 NE 11 15 6 8 1021.1 1020.7 0.0
21/02:30am 11.9 10.2 10.0 88 1.0 NE 9 13 5 7 1021.3 1020.9 0.0
21/02:00am 12.4 10.8 10.1 86 1.2 NE 9 13 5 7 1021.3 1020.9 0.0
21/01:30am 12.8 9.3 10.3 85 1.4 NE 19 26 10 14 1021.6 1021.1 0.0
21/01:00am 13.0 9.0 10.4 84 1.4 NE 22 32 12 17 1021.8 1021.3 0.0
21/12:30am 13.3 8.9 10.5 83 1.5 NE 24 32 13 17 1021.9 1021.5 0.0
21/12:00am 13.0 9.3 10.2 83 1.5 NE 20 33 11 18 1022.1 1021.7 0.0
 
Date/Time
EST
Temp
°C
App
Temp
°C
Dew
Point
°C
Rel
Hum
%
Delta-T
°C
Wind Press
QNH
hPa
Press
MSL
hPa
Rain since
9am
mm
Dir  Spd
km/h
Gust
km/h
Spd
kts
Gust
kts
20/11:30pm 13.4 9.8 10.4 82 1.6 NE 20 30 11 16 1022.1 1021.7 0.0
20/11:00pm 13.3 9.3 10.3 82 1.6 NE 22 30 12 16 1022.4 1022.0 0.0
20/10:30pm 13.4 9.3 10.2 81 1.7 NE 22 28 12 15 1022.7 1022.2 0.0
20/10:00pm 13.6 9.5 10.2 80 1.8 NE 22 30 12 16 1022.7 1022.2 0.0
20/09:30pm 13.8 10.0 9.8 77 2.2 NE 20 28 11 15 1022.8 1022.4 0.0
20/09:00pm 14.2 10.4 9.8 75 2.4 NE 20 28 11 15 1022.8 1022.4 0.0
20/08:30pm 14.5 10.3 9.7 73 2.6 NE 22 33 12 18 1022.5 1022.1 0.0
20/08:00pm 14.9 11.0 9.5 70 2.9 NE 20 28 11 15 1022.4 1022.0 0.0
20/07:30pm 15.2 11.3 7.0 58 4.2 NE 17 22 9 12 1022.2 1021.8 0.0
20/07:00pm 15.4 11.5 6.9 57 4.4 NE 17 20 9 11 1022.1 1021.7 0.0
20/06:30pm 15.7 11.8 7.2 57 4.4 NE 17 20 9 11 1022.0 1021.6 0.0
20/06:00pm 16.1 12.1 6.8 54 4.8 NNE 17 22 9 12 1022.0 1021.6 0.0
20/05:30pm 17.3 12.8 7.1 51 5.3 NNE 20 28 11 15 1021.9 1021.5 0.0
20/05:00pm 18.2 13.3 6.7 47 6.0 NNE 22 30 12 16 1021.8 1021.3 0.0
20/04:30pm 18.5 14.2 7.9 50 5.7 NNE 20 32 11 17 1021.7 1021.2 0.0
20/04:00pm 19.0 13.3 6.8 45 6.4 N 26 32 14 17 1021.8 1021.3 0.0
20/03:30pm 18.7 12.1 5.9 43 6.6 NNE 30 41 16 22 1021.8 1021.3 0.0
20/03:00pm 18.7 12.9 6.2 44 6.5 NNE 26 41 14 22 1022.0 1021.6 0.0

Other formats

Comma delimited format used in spreadsheet applications
http://www.bom.gov.au/fwo/IDN60801/IDN60801.95726.axf

JavaScript Object Notation format (JSON) in row-major order
http://www.bom.gov.au/fwo/IDN60801/IDN60801.95726.json

Data quality

Most of these data are generated automatically and are frequently updated. Quality checks on data are not normally performed. It is possible for incorrect values to appear. Refer to information at About Latest Weather Observations and please check the disclaimer before using these data.